Time;durP1;ratioP1;P1;durP2;ratioP2;P2;SDS_P1;SDS_P2;PMS_P1;PMS_P2;Temp;Humidity;BMP_temperature;BMP_pressure;BME280_temperature;BME280_humidity;BME280_pressure;Samples;Min_cycle;Max_cycle;Signal;HPM_P1;HPM_P2
2022/03/04 00:00:35;;;;;;;6.00;5.40;;;19.70;85.20;;;;;;4224771;28;20217;-75
2022/03/04 00:02:37;;;;;;;6.40;5.72;;;19.70;85.20;;;;;;4223519;28;20282;-76
2022/03/04 00:04:40;;;;;;;7.45;5.55;;;19.70;85.90;;;;;;4224592;28;20615;-75
2022/03/04 00:06:42;;;;;;;7.78;6.20;;;19.70;85.00;;;;;;4222939;28;20237;-76
2022/03/04 00:08:45;;;;;;;7.25;6.45;;;19.70;84.90;;;;;;4226366;28;20266;-76
2022/03/04 00:10:48;;;;;;;6.78;6.07;;;19.70;85.00;;;;;;4224671;28;20222;-76
2022/03/04 00:12:53;;;;;;;7.40;5.95;;;19.70;84.90;;;;;;4224892;28;20293;-76
2022/03/04 00:14:56;;;;;;;8.38;5.90;;;19.70;84.90;;;;;;4222216;28;20299;-75
2022/03/04 00:16:58;;;;;;;7.00;6.20;;;19.70;84.90;;;;;;4221307;28;20218;-76
2022/03/04 00:19:10;;;;;;;6.50;5.65;;;19.70;84.90;;;;;;4221769;28;20287;-76
2022/03/04 00:21:12;;;;;;;6.97;6.00;;;19.70;84.80;;;;;;4224482;28;20226;-76
2022/03/04 00:23:15;;;;;;;7.32;5.53;;;19.60;84.70;;;;;;4223811;28;20225;-76
2022/03/04 00:25:19;;;;;;;7.68;6.55;;;19.60;84.50;;;;;;4224090;28;20225;-76
2022/03/04 00:27:23;;;;;;;8.18;6.45;;;19.60;84.60;;;;;;4222365;28;20514;-75
2022/03/04 00:29:26;;;;;;;8.43;5.72;;;19.60;84.40;;;;;;4225825;27;20218;-76
2022/03/04 00:31:28;;;;;;;7.43;6.57;;;19.60;84.30;;;;;;4225422;28;20226;-76
2022/03/04 00:33:30;;;;;;;7.10;6.05;;;19.60;85.10;;;;;;4223811;28;20218;-76
2022/03/04 00:35:33;;;;;;;7.53;6.50;;;19.60;84.20;;;;;;4224669;28;20629;-76
2022/03/04 00:37:35;;;;;;;7.47;6.40;;;19.60;84.30;;;;;;4224018;28;20213;-76
2022/03/04 00:39:37;;;;;;;6.82;6.03;;;19.60;84.10;;;;;;4223956;28;20222;-76
2022/03/04 00:41:40;;;;;;;7.03;6.18;;;19.60;84.10;;;;;;4224921;28;20222;-76
2022/03/04 00:43:44;;;;;;;7.43;6.32;;;19.50;84.10;;;;;;4221156;28;20255;-76
2022/03/04 00:45:46;;;;;;;7.22;6.35;;;19.60;84.10;;;;;;4220626;28;20696;-75
2022/03/04 00:47:48;;;;;;;8.40;6.20;;;19.50;83.90;;;;;;4219964;28;20229;-76
2022/03/04 00:49:51;;;;;;;9.23;6.60;;;19.50;83.70;;;;;;4223457;28;20243;-76
2022/03/04 00:51:53;;;;;;;8.25;6.20;;;19.50;83.70;;;;;;4223274;28;20221;-76
2022/03/04 00:53:56;;;;;;;7.28;6.30;;;19.50;83.70;;;;;;4224012;28;20230;-76
2022/03/04 00:55:58;;;;;;;6.50;5.80;;;19.50;83.70;;;;;;4223101;28;20271;-76
2022/03/04 00:58:01;;;;;;;7.18;6.40;;;19.50;83.60;;;;;;4222092;28;20263;-76
2022/03/04 01:00:06;;;;;;;7.65;6.78;;;19.50;83.70;;;;;;4225162;28;20218;-76
2022/03/04 01:02:08;;;;;;;6.88;6.18;;;19.50;83.40;;;;;;4223213;28;20214;-75
2022/03/04 01:04:11;;;;;;;8.18;6.53;;;19.50;83.40;;;;;;4222800;28;20221;-76
2022/03/04 01:06:13;;;;;;;8.10;6.60;;;19.50;83.50;;;;;;4224433;28;20214;-76
2022/03/04 01:08:15;;;;;;;8.50;6.57;;;19.50;84.10;;;;;;4222005;28;20237;-76
2022/03/04 01:10:17;;;;;;;7.03;6.25;;;19.50;83.30;;;;;;4224743;28;20243;-76
2022/03/04 01:12:20;;;;;;;7.57;6.53;;;19.40;83.20;;;;;;4224199;28;20218;-76
2022/03/04 01:14:22;;;;;;;7.22;6.10;;;19.50;83.20;;;;;;4223529;28;20250;-75
2022/03/04 01:16:27;;;;;;;7.95;6.22;;;19.50;83.20;;;;;;4221360;28;20221;-76
2022/03/04 01:18:29;;;;;;;9.13;6.80;;;19.40;83.20;;;;;;4222447;28;20210;-76
2022/03/04 01:20:32;;;;;;;8.85;6.60;;;19.40;83.10;;;;;;4222028;28;20209;-76
2022/03/04 01:22:34;;;;;;;7.15;6.40;;;19.50;83.30;;;;;;4222615;28;20299;-76
2022/03/04 01:24:36;;;;;;;6.63;6.03;;;19.40;83.10;;;;;;4224175;28;20263;-76
2022/03/04 01:26:39;;;;;;;8.38;6.55;;;19.40;82.90;;;;;;4222024;28;20262;-75
2022/03/04 01:28:41;;;;;;;7.43;6.20;;;19.40;83.00;;;;;;4223625;28;20762;-75
2022/03/04 01:30:43;;;;;;;7.07;6.38;;;19.40;82.80;;;;;;4224374;28;20334;-76
2022/03/04 01:32:48;;;;;;;8.93;6.65;;;19.40;82.90;;;;;;4224977;28;20235;-76
2022/03/04 01:34:50;;;;;;;7.78;6.32;;;19.30;82.60;;;;;;4222888;28;20251;-76
2022/03/04 01:36:52;;;;;;;7.20;6.25;;;19.40;82.80;;;;;;4223936;28;20209;-75
2022/03/04 01:38:55;;;;;;;7.88;6.43;;;19.40;82.70;;;;;;4222872;28;20214;-76
2022/03/04 01:40:57;;;;;;;7.90;6.05;;;19.40;82.70;;;;;;4223674;28;20213;-76
2022/03/04 01:43:00;;;;;;;7.63;6.65;;;19.40;82.70;;;;;;4222275;28;20243;-76
2022/03/04 01:45:04;;;;;;;6.72;6.05;;;19.30;82.50;;;;;;4224681;28;20299;-76
2022/03/04 01:47:07;;;;;;;7.22;6.43;;;19.30;82.50;;;;;;4224127;28;20667;-76
2022/03/04 01:49:11;;;;;;;6.70;6.03;;;19.30;82.50;;;;;;4223336;28;20346;-76
2022/03/04 01:51:14;;;;;;;8.93;6.40;;;19.30;82.40;;;;;;4221207;28;20217;-76
2022/03/04 01:53:17;;;;;;;7.60;6.45;;;19.30;82.50;;;;;;4226237;28;20210;-76
2022/03/04 01:55:19;;;;;;;7.63;6.28;;;19.30;82.50;;;;;;4226057;28;20271;-76
2022/03/04 01:57:21;;;;;;;8.98;6.35;;;19.30;82.40;;;;;;4227846;28;20213;-76
2022/03/04 01:59:24;;;;;;;7.47;6.43;;;19.30;82.30;;;;;;4225176;28;20218;-76
2022/03/04 02:01:26;;;;;;;8.00;5.72;;;19.30;82.20;;;;;;4226385;28;20206;-75
2022/03/04 02:03:29;;;;;;;7.70;6.47;;;19.30;82.10;;;;;;4226853;28;20221;-75
2022/03/04 02:05:32;;;;;;;7.20;6.50;;;19.20;81.90;;;;;;4226420;28;20278;-76
2022/03/04 02:07:35;;;;;;;7.30;6.47;;;19.30;82.10;;;;;;4226721;28;20237;-75
2022/03/04 02:09:37;;;;;;;7.30;6.22;;;19.30;82.00;;;;;;4223378;28;20267;-76
2022/03/04 02:11:43;;;;;;;7.45;6.00;;;19.30;82.20;;;;;;4225210;28;20226;-76
2022/03/04 02:13:45;;;;;;;7.05;5.80;;;19.30;82.10;;;;;;4226703;28;20218;-76
2022/03/04 02:15:48;;;;;;;8.48;6.40;;;19.30;82.00;;;;;;4225038;28;20245;-75
2022/03/04 02:17:50;;;;;;;7.43;6.60;;;19.20;81.90;;;;;;4225657;28;20217;-75
2022/03/04 02:19:53;;;;;;;8.07;6.88;;;19.20;81.90;;;;;;4226731;28;20638;-76
2022/03/04 02:22:00;;;;;;;7.25;6.30;;;19.20;81.70;;;;;;4225505;28;20271;-76
2022/03/04 02:24:04;;;;;;;8.13;6.50;;;19.20;81.70;;;;;;4225427;28;20272;-75
2022/03/04 02:26:06;;;;;;;8.52;6.63;;;19.20;81.80;;;;;;4223193;28;20214;-76
2022/03/04 02:28:09;;;;;;;7.85;6.35;;;19.20;81.80;;;;;;4226666;28;20230;-76
2022/03/04 02:30:13;;;;;;;8.23;6.63;;;19.20;81.90;;;;;;4228024;28;20217;-75
2022/03/04 02:32:16;;;;;;;9.07;6.60;;;19.20;81.70;;;;;;4226134;28;20255;-75
2022/03/04 02:34:19;;;;;;;7.00;6.40;;;19.20;81.60;;;;;;4220922;28;20214;-75
2022/03/04 02:36:21;;;;;;;6.90;6.20;;;19.20;81.40;;;;;;4221592;28;20372;-76
2022/03/04 02:38:25;;;;;;;7.15;6.43;;;19.20;81.30;;;;;;4226405;28;20234;-75
2022/03/04 02:40:28;;;;;;;8.35;6.50;;;19.10;81.30;;;;;;4223467;28;20210;-76
2022/03/04 02:42:30;;;;;;;6.30;5.65;;;19.10;81.30;;;;;;4223921;28;20726;-75
2022/03/04 02:44:32;;;;;;;7.60;6.30;;;19.20;81.40;;;;;;4225947;28;20214;-75
2022/03/04 02:46:35;;;;;;;6.90;6.20;;;19.10;81.20;;;;;;4226402;28;20609;-75
2022/03/04 02:48:38;;;;;;;7.40;6.32;;;19.10;81.20;;;;;;4225296;28;20283;-76
2022/03/04 02:50:40;;;;;;;6.95;6.15;;;19.10;81.20;;;;;;4224761;28;20213;-75
2022/03/04 02:52:42;;;;;;;6.78;6.05;;;19.10;81.20;;;;;;4226081;28;20651;-75
2022/03/04 02:54:46;;;;;;;7.25;6.13;;;19.10;81.30;;;;;;4225496;28;20262;-76
2022/03/04 02:56:48;;;;;;;6.55;5.95;;;19.10;81.30;;;;;;4225508;28;20213;-75
2022/03/04 02:58:51;;;;;;;6.45;5.82;;;19.10;81.10;;;;;;4226160;28;20249;-75
2022/03/04 03:00:54;;;;;;;7.05;6.35;;;19.10;81.10;;;;;;4225966;28;20617;-76
2022/03/04 03:02:56;;;;;;;7.25;6.13;;;19.10;81.10;;;;;;4223010;28;20658;-76
2022/03/04 03:04:59;;;;;;;7.97;6.40;;;19.10;81.70;;;;;;4224455;28;20210;-76
2022/03/04 03:07:01;;;;;;;8.02;6.07;;;19.10;81.10;;;;;;4223665;28;20226;-76
2022/03/04 03:09:04;;;;;;;7.25;6.50;;;19.10;80.80;;;;;;4225153;28;20345;-75
2022/03/04 03:11:08;;;;;;;7.43;6.72;;;19.10;80.80;;;;;;4227117;28;20226;-75
2022/03/04 03:13:10;;;;;;;6.85;6.00;;;19.10;81.00;;;;;;4225964;28;20221;-76
2022/03/04 03:15:13;;;;;;;8.48;6.35;;;19.10;80.80;;;;;;4225751;28;20214;-76
2022/03/04 03:17:15;;;;;;;7.28;5.85;;;19.10;80.80;;;;;;4225304;28;20618;-76
2022/03/04 03:19:17;;;;;;;7.18;5.93;;;19.10;80.80;;;;;;4225920;28;20214;-76
2022/03/04 03:21:20;;;;;;;7.90;6.10;;;19.00;80.70;;;;;;4225041;28;20218;-75
2022/03/04 03:23:22;;;;;;;7.15;6.40;;;19.10;80.80;;;;;;4226119;28;20278;-76
2022/03/04 03:25:25;;;;;;;6.65;5.97;;;19.00;80.60;;;;;;4224029;28;20213;-75
2022/03/04 03:27:28;;;;;;;6.10;5.50;;;19.00;80.50;;;;;;4227021;28;20987;-76
2022/03/04 03:29:31;;;;;;;8.07;6.15;;;19.00;80.50;;;;;;4226461;28;20275;-75
2022/03/04 03:31:33;;;;;;;6.72;5.72;;;19.00;80.50;;;;;;4226767;28;20263;-75
2022/03/04 03:33:37;;;;;;;6.50;5.75;;;19.00;80.60;;;;;;4225860;28;20259;-75
2022/03/04 03:35:39;;;;;;;6.93;6.20;;;19.00;80.60;;;;;;4226578;28;20266;-76
2022/03/04 03:37:42;;;;;;;7.65;5.90;;;19.00;80.50;;;;;;4226136;28;20742;-75
2022/03/04 03:39:44;;;;;;;6.72;6.00;;;19.00;80.40;;;;;;4226534;28;20275;-76
2022/03/04 03:41:47;;;;;;;7.35;6.00;;;19.00;80.50;;;;;;4224697;28;20214;-75
2022/03/04 03:43:50;;;;;;;8.52;5.90;;;19.00;80.50;;;;;;4225097;28;20205;-76
2022/03/04 03:45:53;;;;;;;7.43;6.25;;;19.00;80.40;;;;;;4225633;28;20639;-76
2022/03/04 03:47:56;;;;;;;7.03;6.25;;;18.90;80.40;;;;;;4225698;28;20275;-75
2022/03/04 03:49:58;;;;;;;7.05;6.10;;;19.00;80.50;;;;;;4224238;28;20294;-76
2022/03/04 03:52:00;;;;;;;7.50;6.20;;;18.90;81.00;;;;;;4224863;28;20281;-76
2022/03/04 03:54:03;;;;;;;8.18;6.13;;;18.90;80.30;;;;;;4226160;28;20279;-76
2022/03/04 03:56:05;;;;;;;6.20;5.60;;;18.90;80.20;;;;;;4225888;28;20271;-75
2022/03/04 03:58:08;;;;;;;7.00;5.70;;;18.90;80.20;;;;;;4224158;28;20247;-76
2022/03/04 04:00:13;;;;;;;7.70;6.03;;;18.90;80.20;;;;;;4225190;28;20668;-75
2022/03/04 04:02:15;;;;;;;6.47;5.82;;;18.90;80.30;;;;;;4222673;28;20670;-75
2022/03/04 04:04:18;;;;;;;8.27;6.15;;;18.90;80.30;;;;;;4222776;28;20655;-75
2022/03/04 04:06:20;;;;;;;7.82;5.90;;;18.80;80.00;;;;;;4223378;28;20623;-75
2022/03/04 04:08:23;;;;;;;6.65;6.05;;;18.90;80.30;;;;;;4224879;28;20218;-76
2022/03/04 04:10:25;;;;;;;7.70;6.15;;;18.80;80.20;;;;;;4224349;28;20251;-75
2022/03/04 04:12:28;;;;;;;8.40;6.47;;;18.80;80.10;;;;;;4226484;28;20617;-75
2022/03/04 04:14:31;;;;;;;8.02;6.45;;;18.80;79.90;;;;;;4225020;28;20255;-75
2022/03/04 04:16:35;;;;;;;6.63;5.85;;;18.80;79.90;;;;;;4225119;28;20290;-75
2022/03/04 04:18:37;;;;;;;7.03;5.88;;;18.80;80.00;;;;;;4224789;28;20545;-76
2022/03/04 04:20:40;;;;;;;6.90;6.20;;;18.80;79.80;;;;;;4223671;28;20290;-76
2022/03/04 04:22:42;;;;;;;7.20;6.13;;;18.80;80.00;;;;;;4222573;28;20217;-75
2022/03/04 04:24:44;;;;;;;6.95;6.05;;;18.80;79.70;;;;;;4221600;28;20210;-76
2022/03/04 04:26:47;;;;;;;7.68;6.40;;;18.80;79.80;;;;;;4224053;28;20206;-76
2022/03/04 04:28:51;;;;;;;6.90;6.07;;;18.80;79.60;;;;;;4225117;28;20634;-75
2022/03/04 04:30:53;;;;;;;6.95;5.70;;;18.80;79.60;;;;;;4223306;28;20210;-75
2022/03/04 04:32:57;;;;;;;6.78;5.53;;;18.80;79.70;;;;;;4222881;28;20221;-77
2022/03/04 04:35:00;;;;;;;6.82;5.68;;;18.80;79.60;;;;;;4225235;28;20225;-76
2022/03/04 04:37:02;;;;;;;7.78;6.10;;;18.80;79.60;;;;;;4224839;28;20225;-76
2022/03/04 04:39:04;;;;;;;7.15;5.47;;;18.80;79.70;;;;;;4225704;28;20214;-76
2022/03/04 04:41:07;;;;;;;7.15;5.85;;;18.80;79.70;;;;;;4224403;28;20209;-76
2022/03/04 04:43:09;;;;;;;7.97;6.07;;;18.80;79.60;;;;;;4224712;28;20210;-76
2022/03/04 04:45:12;;;;;;;8.10;6.38;;;18.80;79.60;;;;;;4223651;28;20711;-76
2022/03/04 04:47:14;;;;;;;6.97;6.10;;;18.70;79.50;;;;;;4224400;28;20213;-76
2022/03/04 04:49:18;;;;;;;6.90;5.82;;;18.70;79.40;;;;;;4225430;28;20643;-76
2022/03/04 04:51:20;;;;;;;7.22;5.93;;;18.70;79.50;;;;;;4223522;28;20255;-75
2022/03/04 04:53:22;;;;;;;6.53;5.68;;;18.70;79.40;;;;;;4224409;28;20222;-75
2022/03/04 04:55:25;;;;;;;6.75;6.10;;;18.70;79.30;;;;;;4225176;28;20266;-76
2022/03/04 04:57:27;;;;;;;6.80;5.85;;;18.70;79.30;;;;;;4224728;28;20263;-76
2022/03/04 04:59:29;;;;;;;10.93;6.47;;;18.70;79.10;;;;;;4223033;28;20222;-75
2022/03/04 05:01:32;;;;;;;6.97;5.53;;;18.60;80.00;;;;;;4223554;28;20213;-76
2022/03/04 05:03:34;;;;;;;6.22;5.60;;;18.70;79.30;;;;;;4224416;28;20222;-75
2022/03/04 05:05:38;;;;;;;6.03;5.43;;;18.70;79.10;;;;;;4223652;28;20225;-75
2022/03/04 05:07:40;;;;;;;8.25;6.40;;;18.70;79.10;;;;;;4224499;28;20225;-75
2022/03/04 05:09:43;;;;;;;6.70;5.95;;;18.70;79.10;;;;;;4223950;28;20241;-76
2022/03/04 05:11:45;;;;;;;7.63;5.85;;;18.60;79.00;;;;;;4224995;28;20259;-76
2022/03/04 05:13:48;;;;;;;7.38;5.97;;;18.70;79.10;;;;;;4224072;28;20255;-76
2022/03/04 05:15:51;;;;;;;6.55;5.60;;;18.70;79.20;;;;;;4221678;28;20237;-75
2022/03/04 05:17:53;;;;;;;8.48;6.00;;;18.60;79.00;;;;;;4223146;28;20234;-75
2022/03/04 05:19:55;;;;;;;6.68;5.97;;;18.60;78.90;;;;;;4222441;28;20214;-75
2022/03/04 05:21:59;;;;;;;7.40;6.13;;;18.60;79.80;;;;;;4223643;28;20243;-76
2022/03/04 05:24:02;;;;;;;6.75;6.10;;;18.60;78.90;;;;;;4221102;28;20649;-76
2022/03/04 05:26:04;;;;;;;6.35;5.45;;;18.60;79.00;;;;;;4225644;28;20658;-76
2022/03/04 05:28:07;;;;;;;8.15;6.13;;;18.60;78.90;;;;;;4225994;28;20290;-75
2022/03/04 05:30:10;;;;;;;7.78;5.68;;;18.60;78.90;;;;;;4227563;28;20623;-75
2022/03/04 05:32:13;;;;;;;6.22;5.53;;;18.60;78.90;;;;;;4224690;28;20667;-76
2022/03/04 05:34:15;;;;;;;6.22;5.65;;;18.60;78.80;;;;;;4221936;28;20560;-75
2022/03/04 05:36:18;;;;;;;7.18;5.50;;;18.60;78.90;;;;;;4228352;28;20258;-75
2022/03/04 05:38:21;;;;;;;6.90;5.85;;;18.60;78.90;;;;;;4227378;28;20584;-75
2022/03/04 05:40:24;;;;;;;6.82;6.18;;;18.60;78.80;;;;;;4228105;28;20246;-75
2022/03/04 05:42:26;;;;;;;6.90;5.55;;;18.50;79.40;;;;;;4225179;28;20210;-75
2022/03/04 05:44:29;;;;;;;7.45;5.80;;;18.60;78.70;;;;;;4225177;28;20210;-75
2022/03/04 05:46:32;;;;;;;8.05;6.05;;;18.50;78.70;;;;;;4227147;28;20221;-74
2022/03/04 05:48:34;;;;;;;6.95;6.05;;;18.60;78.70;;;;;;4226222;28;20214;-75
2022/03/04 05:50:37;;;;;;;6.20;5.50;;;18.50;78.50;;;;;;4224186;28;20226;-74
2022/03/04 05:52:39;;;;;;;8.10;6.40;;;18.60;78.60;;;;;;4226477;28;20673;-75
2022/03/04 05:54:43;;;;;;;6.50;5.55;;;18.50;78.70;;;;;;4228633;28;20214;-75
2022/03/04 05:56:45;;;;;;;6.30;5.70;;;18.30;79.10;;;;;;4226313;28;20553;-75
2022/03/04 05:58:47;;;;;;;7.88;5.65;;;18.30;79.20;;;;;;4227316;28;20217;-75
2022/03/04 06:00:50;;;;;;;6.85;5.88;;;18.30;78.70;;;;;;4227136;28;20622;-75
2022/03/04 06:02:52;;;;;;;9.70;5.60;;;18.40;78.80;;;;;;4225751;28;20633;-75
2022/03/04 06:04:54;;;;;;;8.02;5.50;;;18.40;78.90;;;;;;4227969;28;20236;-75
2022/03/04 06:06:56;;;;;;;6.47;5.78;;;18.50;78.50;;;;;;4226185;28;20202;-75
2022/03/04 06:08:59;;;;;;;6.97;5.95;;;18.50;78.70;;;;;;4227417;28;20275;-75
2022/03/04 06:11:02;;;;;;;6.00;5.45;;;18.50;78.60;;;;;;4227369;28;20233;-75
2022/03/04 06:13:05;;;;;;;6.50;5.80;;;18.60;79.10;;;;;;4224286;28;20707;-75
2022/03/04 06:15:08;;;;;;;5.97;5.38;;;18.60;79.50;;;;;;4226148;28;20564;-75
2022/03/04 06:17:11;;;;;;;6.80;6.10;;;18.60;79.40;;;;;;4226019;28;20298;-75
2022/03/04 06:19:13;;;;;;;6.80;5.95;;;18.60;79.60;;;;;;4226938;28;20248;-75
2022/03/04 06:21:15;;;;;;;7.93;6.07;;;18.70;80.10;;;;;;4226956;28;20218;-75
2022/03/04 06:23:18;;;;;;;6.38;5.60;;;18.60;80.10;;;;;;4225632;28;20287;-75
2022/03/04 06:25:20;;;;;;;6.88;5.43;;;18.60;80.00;;;;;;4226112;28;20226;-75
2022/03/04 06:27:24;;;;;;;6.80;5.70;;;18.60;81.40;;;;;;4225873;28;20222;-75
2022/03/04 06:29:26;;;;;;;7.00;6.22;;;18.70;80.50;;;;;;4221546;28;20599;-75
2022/03/04 06:31:28;;;;;;;7.22;6.22;;;18.60;80.40;;;;;;4224682;28;20241;-75
2022/03/04 06:33:32;;;;;;;7.32;5.95;;;18.70;81.00;;;;;;4227627;28;20222;-75
2022/03/04 06:35:34;;;;;;;6.57;5.88;;;18.70;81.20;;;;;;4225934;28;20266;-75
2022/03/04 06:37:36;;;;;;;6.68;5.95;;;18.60;80.70;;;;;;4225631;28;20263;-75
2022/03/04 06:39:39;;;;;;;6.32;5.72;;;18.70;81.00;;;;;;4224834;28;20210;-75
2022/03/04 06:41:41;;;;;;;7.07;6.35;;;18.70;81.10;;;;;;4225734;28;20214;-75
2022/03/04 06:43:45;;;;;;;7.50;5.95;;;18.60;81.00;;;;;;4225721;28;20252;-75
2022/03/04 06:45:48;;;;;;;7.05;6.00;;;18.70;81.50;;;;;;4222994;28;20270;-75
2022/03/04 06:47:51;;;;;;;6.43;5.75;;;18.70;81.40;;;;;;4224126;28;20274;-75
2022/03/04 06:49:54;;;;;;;7.15;6.30;;;18.70;82.20;;;;;;4225584;28;20286;-75
2022/03/04 06:51:56;;;;;;;7.10;5.78;;;18.70;81.40;;;;;;4226875;28;20580;-75
2022/03/04 06:53:59;;;;;;;6.93;5.88;;;18.70;81.80;;;;;;4226664;28;20274;-75
2022/03/04 06:56:01;;;;;;;7.18;5.88;;;18.70;81.60;;;;;;4226440;28;20221;-75
2022/03/04 06:58:04;;;;;;;6.65;5.88;;;18.70;81.90;;;;;;4225771;28;20267;-75
2022/03/04 07:00:10;;;;;;;7.95;5.93;;;18.70;82.00;;;;;;4225652;28;20218;-75
2022/03/04 07:02:14;;;;;;;6.95;5.65;;;18.80;82.40;;;;;;4225643;28;20662;-75
2022/03/04 07:04:16;;;;;;;7.80;6.18;;;18.70;82.40;;;;;;4225789;28;20214;-75
2022/03/04 07:06:19;;;;;;;7.05;5.90;;;18.70;82.30;;;;;;4224994;28;20361;-75
2022/03/04 07:08:22;;;;;;;6.10;5.40;;;18.70;82.60;;;;;;4225240;28;20222;-75
2022/03/04 07:10:24;;;;;;;7.20;6.05;;;18.80;82.90;;;;;;4226575;28;20326;-75
2022/03/04 07:12:27;;;;;;;7.75;5.97;;;18.70;83.30;;;;;;4225649;28;20635;-75
2022/03/04 07:14:29;;;;;;;6.82;5.95;;;18.80;82.70;;;;;;4225126;28;20218;-75
2022/03/04 07:16:33;;;;;;;6.68;5.97;;;18.70;82.80;;;;;;4226400;28;21656;-75
2022/03/04 07:18:35;;;;;;;7.80;5.57;;;18.80;83.20;;;;;;4226153;28;20217;-75
2022/03/04 07:20:39;;;;;;;6.20;5.60;;;18.80;83.20;;;;;;4226038;28;20247;-75
2022/03/04 07:22:42;;;;;;;7.65;5.57;;;18.80;83.20;;;;;;4223329;28;20206;-75
2022/03/04 07:24:45;;;;;;;6.13;5.43;;;18.80;83.00;;;;;;4225257;28;21064;-75
2022/03/04 07:26:47;;;;;;;8.32;6.05;;;18.80;82.90;;;;;;4226793;28;20214;-75
2022/03/04 07:28:50;;;;;;;6.03;5.07;;;18.80;83.10;;;;;;4225207;28;20218;-75
2022/03/04 07:30:52;;;;;;;6.35;5.55;;;18.90;83.20;;;;;;4225637;28;20242;-75
2022/03/04 07:32:56;;;;;;;7.38;5.95;;;18.90;83.10;;;;;;4224300;28;20213;-75
2022/03/04 07:34:59;;;;;;;7.47;5.72;;;18.90;82.90;;;;;;4226737;28;20266;-75
2022/03/04 07:37:01;;;;;;;6.18;5.53;;;18.90;83.40;;;;;;4224594;28;20213;-75
2022/03/04 07:39:03;;;;;;;6.60;5.55;;;18.90;83.50;;;;;;4223783;28;20214;-75
2022/03/04 07:41:06;;;;;;;6.95;5.90;;;18.90;83.60;;;;;;4222778;28;20211;-75
2022/03/04 07:43:08;;;;;;;6.00;5.40;;;18.90;83.70;;;;;;4224122;28;20263;-75
2022/03/04 07:45:11;;;;;;;7.38;5.90;;;18.90;83.60;;;;;;4224803;28;20217;-75
2022/03/04 07:47:14;;;;;;;8.00;6.10;;;18.90;83.50;;;;;;4221666;28;20258;-74
2022/03/04 07:49:18;;;;;;;7.07;6.13;;;18.90;80.50;;;;;;4221545;28;20607;-74
2022/03/04 07:51:20;;;;;;;9.10;6.43;;;19.00;81.70;;;;;;4223485;28;20238;-73
2022/03/04 07:53:22;;;;;;;8.27;5.88;;;19.00;81.90;;;;;;4222859;28;20214;-76
2022/03/04 07:55:26;;;;;;;5.78;4.82;;;19.10;82.40;;;;;;4225893;28;20731;-76
2022/03/04 07:57:29;;;;;;;7.80;5.72;;;19.10;81.70;;;;;;4224091;28;20217;-76
2022/03/04 07:59:31;;;;;;;8.73;6.05;;;19.20;82.50;;;;;;4221258;28;20210;-75
2022/03/04 08:01:34;;;;;;;10.43;6.55;;;19.30;81.50;;;;;;4221203;28;20222;-75
2022/03/04 08:03:36;;;;;;;7.35;6.10;;;19.30;80.70;;;;;;4215431;28;20210;-75
2022/03/04 08:05:40;;;;;;;8.07;5.40;;;19.30;81.20;;;;;;4221128;28;20219;-75
2022/03/04 08:07:43;;;;;;;7.32;5.55;;;19.30;82.80;;;;;;4225305;28;20226;-75
2022/03/04 08:09:48;;;;;;;7.55;5.38;;;19.20;83.60;;;;;;4223522;28;20670;-75
2022/03/04 08:11:50;;;;;;;8.63;5.30;;;19.20;83.60;;;;;;4225207;28;20241;-75
2022/03/04 08:13:53;;;;;;;7.53;5.50;;;19.20;83.90;;;;;;4224682;28;20250;-75
2022/03/04 08:15:55;;;;;;;6.53;5.00;;;19.20;83.20;;;;;;4225310;28;20246;-75
2022/03/04 08:17:57;;;;;;;6.75;5.35;;;19.20;83.80;;;;;;4220761;28;20275;-75
2022/03/04 08:20:00;;;;;;;7.22;5.30;;;19.20;83.00;;;;;;4219185;28;20285;-75
2022/03/04 08:22:05;;;;;;;6.53;5.13;;;19.30;82.70;;;;;;4217515;28;20259;-73
2022/03/04 08:24:07;;;;;;;6.65;5.38;;;19.30;83.90;;;;;;4216484;28;20217;-77
2022/03/04 08:26:10;;;;;;;6.95;4.70;;;19.40;82.80;;;;;;4219696;28;20674;-76
2022/03/04 08:28:12;;;;;;;7.93;5.15;;;19.30;82.60;;;;;;4214237;28;20218;-77
2022/03/04 08:30:15;;;;;;;7.47;5.30;;;19.30;82.80;;;;;;4220803;28;20217;-78
2022/03/04 08:32:18;;;;;;;7.57;5.30;;;19.30;82.80;;;;;;4217637;28;20296;-76
2022/03/04 08:34:20;;;;;;;7.43;5.28;;;19.30;83.50;;;;;;4220666;27;20628;-77
2022/03/04 08:36:24;;;;;;;6.88;4.82;;;19.30;84.90;;;;;;4221196;28;20214;-77
2022/03/04 08:38:28;;;;;;;7.40;5.20;;;19.40;84.30;;;;;;4219940;28;20218;-78
2022/03/04 08:40:31;;;;;;;8.05;5.50;;;19.40;84.80;;;;;;4214210;28;20620;-76
2022/03/04 08:42:33;;;;;;;7.43;5.22;;;19.50;81.90;;;;;;4213585;28;20260;-77
2022/03/04 08:44:36;;;;;;;6.57;4.75;;;19.50;82.10;;;;;;4213854;28;20222;-77
2022/03/04 08:46:38;;;;;;;5.13;4.63;;;19.60;84.10;;;;;;4218945;28;20206;-78
2022/03/04 08:48:40;;;;;;;5.82;4.75;;;19.60;83.20;;;;;;4217818;28;20622;-77
2022/03/04 08:50:43;;;;;;;5.65;5.05;;;19.60;83.70;;;;;;4217985;28;20228;-76
2022/03/04 08:52:45;;;;;;;8.82;4.82;;;19.60;83.70;;;;;;4216773;28;20294;-77
2022/03/04 08:54:49;;;;;;;7.30;5.35;;;19.60;84.30;;;;;;4220646;28;20271;-75
2022/03/04 08:56:52;;;;;;;6.15;4.50;;;19.60;84.20;;;;;;4215965;28;20260;-75
2022/03/04 08:58:54;;;;;;;6.13;5.07;;;19.60;82.70;;;;;;4217508;28;20314;-75
2022/03/04 09:00:57;;;;;;;7.53;5.07;;;19.60;82.60;;;;;;4218275;27;21571;-75
2022/03/04 09:02:59;;;;;;;6.57;4.97;;;19.70;84.10;;;;;;4221682;28;20267;-75
2022/03/04 09:05:05;;;;;;;8.00;4.63;;;19.80;84.70;;;;;;4221897;28;20282;-76
2022/03/04 09:07:08;;;;;;;6.30;4.75;;;19.90;85.80;;;;;;4221017;28;20262;-76
2022/03/04 09:09:10;;;;;;;9.30;4.85;;;19.90;85.60;;;;;;4222877;28;20210;-76
2022/03/04 09:11:14;;;;;;;6.10;5.13;;;20.00;83.20;;;;;;4219690;28;20275;-76
2022/03/04 09:13:17;;;;;;;8.45;4.43;;;20.20;82.10;;;;;;4223496;28;20611;-75
2022/03/04 09:15:20;;;;;;;9.43;4.80;;;20.30;83.50;;;;;;4220195;28;20206;-75
2022/03/04 09:17:22;;;;;;;5.57;4.50;;;20.40;81.40;;;;;;4222145;28;20286;-76
2022/03/04 09:19:25;;;;;;;7.53;4.72;;;20.50;81.40;;;;;;4224473;28;20315;-75
2022/03/04 09:21:28;;;;;;;8.35;5.00;;;20.60;80.50;;;;;;4227227;28;20254;-74
2022/03/04 09:23:30;;;;;;;6.35;5.05;;;20.60;81.20;;;;;;4226413;28;20700;-74
2022/03/04 09:25:33;;;;;;;6.97;4.70;;;20.70;80.10;;;;;;4222313;28;20225;-74
2022/03/04 09:27:37;;;;;;;5.55;4.72;;;20.70;81.40;;;;;;4224902;28;20271;-75
2022/03/04 09:29:40;;;;;;;8.13;4.72;;;20.80;81.40;;;;;;4225626;28;20259;-77
2022/03/04 09:31:45;;;;;;;6.72;4.72;;;20.90;81.70;;;;;;4223244;28;20238;-76
2022/03/04 09:33:47;;;;;;;6.07;4.65;;;21.00;81.10;;;;;;4228038;28;20239;-75
2022/03/04 09:35:49;;;;;;;5.78;4.57;;;21.00;80.00;;;;;;4227479;28;20222;-75
2022/03/04 09:37:52;;;;;;;7.00;4.85;;;21.00;81.00;;;;;;4227461;28;20267;-76
2022/03/04 09:39:56;;;;;;;8.27;4.68;;;21.00;80.60;;;;;;4227716;28;20251;-76
2022/03/04 09:41:59;;;;;;;6.32;4.03;;;21.00;80.00;;;;;;4225654;28;20271;-76
2022/03/04 09:44:03;;;;;;;6.55;4.32;;;21.00;81.10;;;;;;4226760;28;20564;-77
2022/03/04 09:46:06;;;;;;;5.93;4.68;;;21.10;79.80;;;;;;4217764;28;20268;-76
2022/03/04 09:48:12;;;;;;;5.35;4.45;;;21.20;80.00;;;;;;4226911;28;20221;-76
2022/03/04 09:50:17;;;;;;;4.80;4.30;;;21.20;80.60;;;;;;4220029;28;20259;-76
2022/03/04 09:52:20;;;;;;;5.85;4.57;;;21.30;79.60;;;;;;4220530;28;20314;-77
2022/03/04 09:54:22;;;;;;;6.43;4.80;;;21.20;80.90;;;;;;4213838;28;20213;-77
2022/03/04 09:56:24;;;;;;;7.15;4.45;;;21.20;80.30;;;;;;4217011;28;20267;-77
2022/03/04 09:58:27;;;;;;;4.55;4.07;;;21.30;80.60;;;;;;4221842;28;20214;-76
2022/03/04 10:00:30;;;;;;;5.38;4.65;;;21.30;79.80;;;;;;4222398;28;20217;-75
2022/03/04 10:02:34;;;;;;;6.65;4.68;;;21.30;80.30;;;;;;4221892;28;20563;-77
2022/03/04 10:04:38;;;;;;;6.82;5.00;;;21.40;80.10;;;;;;4220766;28;20274;-76
2022/03/04 10:06:46;;;;;;;13.13;4.35;;;21.40;79.00;;;;;;4222237;28;20239;-73
2022/03/04 10:08:51;;;;;;;6.82;4.10;;;21.30;79.00;;;;;;4218590;28;20235;-73
2022/03/04 10:10:56;;;;;;;5.93;4.50;;;21.30;79.90;;;;;;4221858;28;20239;-73
2022/03/04 10:13:01;;;;;;;7.35;4.50;;;21.30;82.40;;;;;;4222091;28;20717;-73
2022/03/04 10:15:06;;;;;;;4.93;4.13;;;21.20;83.30;;;;;;4224033;28;20218;-73
2022/03/04 10:17:15;;;;;;;4.68;3.90;;;21.20;84.50;;;;;;4224825;28;21840;-72
2022/03/04 10:19:23;;;;;;;4.32;3.80;;;21.20;81.20;;;;;;4225048;28;20658;-73
2022/03/04 10:21:47;;;;;;;6.50;4.50;;;21.30;80.30;;;;;;4223279;28;20260;-72
2022/03/04 10:23:50;;;;;;;6.82;4.32;;;21.30;80.40;;;;;;4224959;28;20505;-73
2022/03/04 10:25:54;;;;;;;5.55;4.40;;;21.30;80.60;;;;;;4223217;27;20213;-73
2022/03/04 10:28:09;;;;;;;5.15;4.60;;;21.30;80.60;;;;;;4227301;28;20218;-72
2022/03/04 10:30:12;;;;;;;6.38;4.25;;;21.30;79.80;;;;;;4223716;28;20213;-72
2022/03/04 10:32:18;;;;;;;5.15;3.95;;;21.30;81.00;;;;;;4222599;28;20263;-73
2022/03/04 10:34:20;;;;;;;8.05;4.55;;;21.30;81.10;;;;;;4223730;27;20213;-72
2022/03/04 10:36:22;;;;;;;5.68;4.47;;;21.30;80.80;;;;;;4227921;27;20226;-73
2022/03/04 10:38:26;;;;;;;6.28;5.13;;;21.40;79.90;;;;;;4225294;28;20252;-72